sensor_id;sensor_type;location;lat;lon;timestamp;temperature;humidity
27188;DHT22;14708;50.872;5.306;2023-12-22T00:01:20;22.90;51.90
27188;DHT22;14708;50.872;5.306;2023-12-22T00:03:46;23.00;52.50
27188;DHT22;14708;50.872;5.306;2023-12-22T00:06:12;22.90;52.00
27188;DHT22;14708;50.872;5.306;2023-12-22T00:08:38;22.90;52.10
27188;DHT22;14708;50.872;5.306;2023-12-22T00:11:04;22.90;51.90
27188;DHT22;14708;50.872;5.306;2023-12-22T00:13:30;22.80;52.00
27188;DHT22;14708;50.872;5.306;2023-12-22T00:15:58;22.80;52.00
27188;DHT22;14708;50.872;5.306;2023-12-22T00:18:24;22.80;51.90
27188;DHT22;14708;50.872;5.306;2023-12-22T00:20:49;22.80;52.00
27188;DHT22;14708;50.872;5.306;2023-12-22T00:23:15;22.80;52.00
27188;DHT22;14708;50.872;5.306;2023-12-22T00:25:40;22.70;51.90
27188;DHT22;14708;50.872;5.306;2023-12-22T00:28:06;22.70;52.20
27188;DHT22;14708;50.872;5.306;2023-12-22T00:30:32;22.70;52.00
27188;DHT22;14708;50.872;5.306;2023-12-22T00:32:58;22.70;52.00
27188;DHT22;14708;50.872;5.306;2023-12-22T00:35:24;22.60;51.90
27188;DHT22;14708;50.872;5.306;2023-12-22T00:37:49;22.60;52.00
27188;DHT22;14708;50.872;5.306;2023-12-22T00:40:15;22.60;52.00
27188;DHT22;14708;50.872;5.306;2023-12-22T00:42:41;22.60;51.90
27188;DHT22;14708;50.872;5.306;2023-12-22T00:45:07;22.60;52.10
27188;DHT22;14708;50.872;5.306;2023-12-22T00:47:32;22.60;52.10
27188;DHT22;14708;50.872;5.306;2023-12-22T00:50:01;22.60;52.20
27188;DHT22;14708;50.872;5.306;2023-12-22T00:52:28;22.50;52.10
27188;DHT22;14708;50.872;5.306;2023-12-22T00:54:53;22.50;52.10
27188;DHT22;14708;50.872;5.306;2023-12-22T00:57:19;22.50;52.10
27188;DHT22;14708;50.872;5.306;2023-12-22T00:59:45;22.50;52.20
27188;DHT22;14708;50.872;5.306;2023-12-22T01:02:17;22.50;52.20
27188;DHT22;14708;50.872;5.306;2023-12-22T01:04:42;22.40;52.10
27188;DHT22;14708;50.872;5.306;2023-12-22T01:07:09;22.40;52.10
27188;DHT22;14708;50.872;5.306;2023-12-22T01:09:35;22.40;52.20
27188;DHT22;14708;50.872;5.306;2023-12-22T01:12:01;22.40;52.20
27188;DHT22;14708;50.872;5.306;2023-12-22T01:14:29;22.40;52.20
27188;DHT22;14708;50.872;5.306;2023-12-22T01:16:55;22.40;52.10
27188;DHT22;14708;50.872;5.306;2023-12-22T01:19:21;22.30;51.90
27188;DHT22;14708;50.872;5.306;2023-12-22T01:21:46;22.30;51.90
27188;DHT22;14708;50.872;5.306;2023-12-22T01:24:12;22.30;51.90
27188;DHT22;14708;50.872;5.306;2023-12-22T01:26:38;22.30;52.00
27188;DHT22;14708;50.872;5.306;2023-12-22T01:29:03;22.20;51.80
27188;DHT22;14708;50.872;5.306;2023-12-22T01:31:30;22.30;51.90
27188;DHT22;14708;50.872;5.306;2023-12-22T01:33:55;22.20;51.90
27188;DHT22;14708;50.872;5.306;2023-12-22T01:36:21;22.20;51.90
27188;DHT22;14708;50.872;5.306;2023-12-22T01:38:47;22.20;51.90
27188;DHT22;14708;50.872;5.306;2023-12-22T01:41:13;22.20;52.00
27188;DHT22;14708;50.872;5.306;2023-12-22T01:43:39;22.20;51.90
27188;DHT22;14708;50.872;5.306;2023-12-22T01:46:05;22.20;52.00
27188;DHT22;14708;50.872;5.306;2023-12-22T01:48:31;22.20;51.90
27188;DHT22;14708;50.872;5.306;2023-12-22T01:50:58;22.20;51.90
27188;DHT22;14708;50.872;5.306;2023-12-22T01:53:25;22.10;51.90
27188;DHT22;14708;50.872;5.306;2023-12-22T01:55:52;22.10;51.90
27188;DHT22;14708;50.872;5.306;2023-12-22T01:58:20;22.10;52.00
27188;DHT22;14708;50.872;5.306;2023-12-22T02:00:47;22.10;52.00
27188;DHT22;14708;50.872;5.306;2023-12-22T02:03:13;22.10;52.10
27188;DHT22;14708;50.872;5.306;2023-12-22T02:05:41;22.10;52.10
27188;DHT22;14708;50.872;5.306;2023-12-22T02:08:07;22.10;52.00
27188;DHT22;14708;50.872;5.306;2023-12-22T02:10:33;22.10;52.70
27188;DHT22;14708;50.872;5.306;2023-12-22T02:12:59;22.00;52.00
27188;DHT22;14708;50.872;5.306;2023-12-22T02:15:25;22.00;52.00
27188;DHT22;14708;50.872;5.306;2023-12-22T02:18:07;22.00;52.00
27188;DHT22;14708;50.872;5.306;2023-12-22T02:20:33;22.00;51.80
27188;DHT22;14708;50.872;5.306;2023-12-22T02:23:00;22.00;52.00
27188;DHT22;14708;50.872;5.306;2023-12-22T02:25:25;22.00;51.90
27188;DHT22;14708;50.872;5.306;2023-12-22T02:27:58;21.90;52.00
27188;DHT22;14708;50.872;5.306;2023-12-22T02:31:13;21.90;52.00
27188;DHT22;14708;50.872;5.306;2023-12-22T02:33:18;22.00;52.00
27188;DHT22;14708;50.872;5.306;2023-12-22T02:35:48;21.90;52.10
27188;DHT22;14708;50.872;5.306;2023-12-22T02:38:16;21.90;52.00
27188;DHT22;14708;50.872;5.306;2023-12-22T02:40:41;21.90;52.00
27188;DHT22;14708;50.872;5.306;2023-12-22T02:43:08;21.90;52.00
27188;DHT22;14708;50.872;5.306;2023-12-22T02:45:34;21.90;52.00
27188;DHT22;14708;50.872;5.306;2023-12-22T02:48:00;21.90;52.00
27188;DHT22;14708;50.872;5.306;2023-12-22T02:50:26;21.90;52.00
27188;DHT22;14708;50.872;5.306;2023-12-22T02:52:51;21.80;52.00
27188;DHT22;14708;50.872;5.306;2023-12-22T02:55:17;21.80;51.90
27188;DHT22;14708;50.872;5.306;2023-12-22T02:57:43;21.80;52.00
27188;DHT22;14708;50.872;5.306;2023-12-22T03:00:09;21.80;51.90
27188;DHT22;14708;50.872;5.306;2023-12-22T03:02:35;21.80;51.90
27188;DHT22;14708;50.872;5.306;2023-12-22T03:05:00;21.80;51.90
27188;DHT22;14708;50.872;5.306;2023-12-22T03:07:26;21.80;51.90
27188;DHT22;14708;50.872;5.306;2023-12-22T03:09:52;21.80;51.80
27188;DHT22;14708;50.872;5.306;2023-12-22T03:12:17;21.80;51.90
27188;DHT22;14708;50.872;5.306;2023-12-22T03:14:43;21.80;51.90
27188;DHT22;14708;50.872;5.306;2023-12-22T03:17:09;21.70;51.80
27188;DHT22;14708;50.872;5.306;2023-12-22T03:19:36;21.70;52.00
27188;DHT22;14708;50.872;5.306;2023-12-22T03:22:02;21.70;51.90
27188;DHT22;14708;50.872;5.306;2023-12-22T03:24:28;21.70;51.90
27188;DHT22;14708;50.872;5.306;2023-12-22T03:26:54;21.70;51.90
27188;DHT22;14708;50.872;5.306;2023-12-22T03:29:20;21.60;51.90
27188;DHT22;14708;50.872;5.306;2023-12-22T03:31:46;21.60;52.00
27188;DHT22;14708;50.872;5.306;2023-12-22T03:34:12;21.60;51.90
27188;DHT22;14708;50.872;5.306;2023-12-22T03:36:38;21.60;52.00
27188;DHT22;14708;50.872;5.306;2023-12-22T03:39:04;21.60;51.80
27188;DHT22;14708;50.872;5.306;2023-12-22T03:41:30;21.60;51.90
27188;DHT22;14708;50.872;5.306;2023-12-22T03:43:56;21.60;51.90
27188;DHT22;14708;50.872;5.306;2023-12-22T03:46:22;21.60;51.80
27188;DHT22;14708;50.872;5.306;2023-12-22T03:48:48;21.60;51.80
27188;DHT22;14708;50.872;5.306;2023-12-22T03:51:14;21.60;51.90
27188;DHT22;14708;50.872;5.306;2023-12-22T03:53:41;21.50;51.80
27188;DHT22;14708;50.872;5.306;2023-12-22T03:56:09;21.50;51.90
27188;DHT22;14708;50.872;5.306;2023-12-22T03:58:36;21.60;52.00
27188;DHT22;14708;50.872;5.306;2023-12-22T04:01:02;21.50;51.90
27188;DHT22;14708;50.872;5.306;2023-12-22T04:03:28;21.50;51.90
27188;DHT22;14708;50.872;5.306;2023-12-22T04:05:53;21.50;52.00
27188;DHT22;14708;50.872;5.306;2023-12-22T04:08:19;21.50;51.90
27188;DHT22;14708;50.872;5.306;2023-12-22T04:10:49;21.50;52.00
27188;DHT22;14708;50.872;5.306;2023-12-22T04:13:15;21.50;52.00
27188;DHT22;14708;50.872;5.306;2023-12-22T04:15:40;21.50;52.00
27188;DHT22;14708;50.872;5.306;2023-12-22T04:18:06;21.50;51.90
27188;DHT22;14708;50.872;5.306;2023-12-22T04:20:31;21.50;52.00
27188;DHT22;14708;50.872;5.306;2023-12-22T04:22:57;21.40;51.90
27188;DHT22;14708;50.872;5.306;2023-12-22T04:25:23;21.40;52.10
27188;DHT22;14708;50.872;5.306;2023-12-22T04:27:50;21.50;52.00
27188;DHT22;14708;50.872;5.306;2023-12-22T04:30:16;21.40;51.90
27188;DHT22;14708;50.872;5.306;2023-12-22T04:32:42;21.40;52.00
27188;DHT22;14708;50.872;5.306;2023-12-22T04:35:07;21.40;52.10
27188;DHT22;14708;50.872;5.306;2023-12-22T04:37:33;21.40;52.00
27188;DHT22;14708;50.872;5.306;2023-12-22T04:39:59;21.40;52.00
27188;DHT22;14708;50.872;5.306;2023-12-22T04:42:25;21.40;52.00
27188;DHT22;14708;50.872;5.306;2023-12-22T04:44:51;21.30;52.00
27188;DHT22;14708;50.872;5.306;2023-12-22T04:47:17;21.40;52.00
27188;DHT22;14708;50.872;5.306;2023-12-22T04:49:43;21.40;52.00
27188;DHT22;14708;50.872;5.306;2023-12-22T04:52:09;21.30;52.00
27188;DHT22;14708;50.872;5.306;2023-12-22T04:54:35;21.30;51.90
27188;DHT22;14708;50.872;5.306;2023-12-22T04:57:00;21.30;51.90
27188;DHT22;14708;50.872;5.306;2023-12-22T04:59:26;21.30;51.90
27188;DHT22;14708;50.872;5.306;2023-12-22T05:01:52;21.30;52.00
27188;DHT22;14708;50.872;5.306;2023-12-22T05:04:17;21.30;52.00
27188;DHT22;14708;50.872;5.306;2023-12-22T05:06:43;21.30;52.10
27188;DHT22;14708;50.872;5.306;2023-12-22T05:09:10;21.30;52.20
27188;DHT22;14708;50.872;5.306;2023-12-22T05:11:36;21.20;52.10
27188;DHT22;14708;50.872;5.306;2023-12-22T05:14:02;21.30;52.10
27188;DHT22;14708;50.872;5.306;2023-12-22T05:16:28;21.20;52.10
27188;DHT22;14708;50.872;5.306;2023-12-22T05:18:59;21.30;52.20
27188;DHT22;14708;50.872;5.306;2023-12-22T05:21:25;21.20;52.00
27188;DHT22;14708;50.872;5.306;2023-12-22T05:23:51;21.20;52.00
27188;DHT22;14708;50.872;5.306;2023-12-22T05:26:20;21.30;52.10
27188;DHT22;14708;50.872;5.306;2023-12-22T05:28:46;21.20;52.20
27188;DHT22;14708;50.872;5.306;2023-12-22T05:31:12;21.20;52.20
27188;DHT22;14708;50.872;5.306;2023-12-22T05:33:38;21.20;52.10
27188;DHT22;14708;50.872;5.306;2023-12-22T05:36:04;21.20;52.10
27188;DHT22;14708;50.872;5.306;2023-12-22T05:38:30;21.20;52.20
27188;DHT22;14708;50.872;5.306;2023-12-22T05:40:56;21.20;52.20
27188;DHT22;14708;50.872;5.306;2023-12-22T05:43:22;21.20;52.00
27188;DHT22;14708;50.872;5.306;2023-12-22T05:45:47;21.10;52.10
27188;DHT22;14708;50.872;5.306;2023-12-22T05:48:13;21.20;52.10
27188;DHT22;14708;50.872;5.306;2023-12-22T05:50:39;21.20;52.20
27188;DHT22;14708;50.872;5.306;2023-12-22T05:53:04;21.10;52.10
27188;DHT22;14708;50.872;5.306;2023-12-22T05:55:30;21.10;52.00
27188;DHT22;14708;50.872;5.306;2023-12-22T05:57:55;21.10;52.10
27188;DHT22;14708;50.872;5.306;2023-12-22T06:00:22;21.10;52.10
27188;DHT22;14708;50.872;5.306;2023-12-22T06:02:47;21.10;52.00
27188;DHT22;14708;50.872;5.306;2023-12-22T06:05:13;21.10;52.00
27188;DHT22;14708;50.872;5.306;2023-12-22T06:07:40;21.10;52.10
27188;DHT22;14708;50.872;5.306;2023-12-22T06:10:06;21.10;52.00
27188;DHT22;14708;50.872;5.306;2023-12-22T06:12:35;21.10;52.00
27188;DHT22;14708;50.872;5.306;2023-12-22T06:15:00;21.10;51.40
27188;DHT22;14708;50.872;5.306;2023-12-22T06:17:26;21.10;51.60
27188;DHT22;14708;50.872;5.306;2023-12-22T06:19:52;21.10;51.50
27188;DHT22;14708;50.872;5.306;2023-12-22T06:22:17;21.10;51.30
27188;DHT22;14708;50.872;5.306;2023-12-22T06:24:43;21.00;51.30
27188;DHT22;14708;50.872;5.306;2023-12-22T06:27:10;21.10;51.30
27188;DHT22;14708;50.872;5.306;2023-12-22T06:29:35;21.00;51.20
27188;DHT22;14708;50.872;5.306;2023-12-22T06:32:01;21.10;51.00
27188;DHT22;14708;50.872;5.306;2023-12-22T06:34:27;21.10;51.00
27188;DHT22;14708;50.872;5.306;2023-12-22T06:36:52;21.00;51.10
27188;DHT22;14708;50.872;5.306;2023-12-22T06:39:18;21.10;51.30
27188;DHT22;14708;50.872;5.306;2023-12-22T06:41:45;21.00;51.00
27188;DHT22;14708;50.872;5.306;2023-12-22T06:44:10;21.00;51.10
27188;DHT22;14708;50.872;5.306;2023-12-22T06:46:36;21.00;51.10
27188;DHT22;14708;50.872;5.306;2023-12-22T06:49:02;21.00;51.10
27188;DHT22;14708;50.872;5.306;2023-12-22T06:51:29;21.00;51.10
27188;DHT22;14708;50.872;5.306;2023-12-22T06:54:01;21.00;51.40
27188;DHT22;14708;50.872;5.306;2023-12-22T06:56:30;21.00;51.20
27188;DHT22;14708;50.872;5.306;2023-12-22T06:58:57;21.00;51.30
27188;DHT22;14708;50.872;5.306;2023-12-22T07:01:27;21.00;51.30
27188;DHT22;14708;50.872;5.306;2023-12-22T07:03:53;21.00;51.10
27188;DHT22;14708;50.872;5.306;2023-12-22T07:06:20;21.00;51.30
27188;DHT22;14708;50.872;5.306;2023-12-22T07:11:37;21.00;50.40
27188;DHT22;14708;50.872;5.306;2023-12-22T07:14:03;21.00;51.00
27188;DHT22;14708;50.872;5.306;2023-12-22T07:16:28;21.10;51.40
27188;DHT22;14708;50.872;5.306;2023-12-22T07:18:54;21.10;51.90
27188;DHT22;14708;50.872;5.306;2023-12-22T07:21:20;21.20;51.80
27188;DHT22;14708;50.872;5.306;2023-12-22T07:23:46;21.30;51.80
27188;DHT22;14708;50.872;5.306;2023-12-22T07:26:12;21.50;51.80
27188;DHT22;14708;50.872;5.306;2023-12-22T07:28:37;21.60;51.90
27188;DHT22;14708;50.872;5.306;2023-12-22T07:31:03;21.70;51.90
27188;DHT22;14708;50.872;5.306;2023-12-22T07:33:30;21.70;51.80
27188;DHT22;14708;50.872;5.306;2023-12-22T07:35:56;21.80;51.80
27188;DHT22;14708;50.872;5.306;2023-12-22T07:38:22;21.80;51.80
27188;DHT22;14708;50.872;5.306;2023-12-22T07:40:47;21.80;51.80
27188;DHT22;14708;50.872;5.306;2023-12-22T07:43:13;21.80;51.70
27188;DHT22;14708;50.872;5.306;2023-12-22T07:45:40;21.90;51.80
27188;DHT22;14708;50.872;5.306;2023-12-22T07:48:06;21.90;51.80
27188;DHT22;14708;50.872;5.306;2023-12-22T07:50:32;22.00;51.70
27188;DHT22;14708;50.872;5.306;2023-12-22T07:52:58;22.00;51.60
27188;DHT22;14708;50.872;5.306;2023-12-22T07:55:24;22.00;51.60
27188;DHT22;14708;50.872;5.306;2023-12-22T07:57:50;22.00;51.60
27188;DHT22;14708;50.872;5.306;2023-12-22T08:00:17;22.10;51.70
27188;DHT22;14708;50.872;5.306;2023-12-22T08:02:43;22.10;51.50
27188;DHT22;14708;50.872;5.306;2023-12-22T08:05:09;22.10;51.50
27188;DHT22;14708;50.872;5.306;2023-12-22T08:07:35;22.10;51.50
27188;DHT22;14708;50.872;5.306;2023-12-22T08:10:02;22.10;51.80
27188;DHT22;14708;50.872;5.306;2023-12-22T08:12:28;22.10;51.60
27188;DHT22;14708;50.872;5.306;2023-12-22T08:14:54;22.10;51.50
27188;DHT22;14708;50.872;5.306;2023-12-22T08:17:19;22.20;51.60
27188;DHT22;14708;50.872;5.306;2023-12-22T08:19:45;22.20;51.70
27188;DHT22;14708;50.872;5.306;2023-12-22T08:22:11;22.20;51.80
27188;DHT22;14708;50.872;5.306;2023-12-22T08:24:38;22.20;51.50
27188;DHT22;14708;50.872;5.306;2023-12-22T08:27:08;22.20;51.60
27188;DHT22;14708;50.872;5.306;2023-12-22T08:29:33;22.20;51.50
27188;DHT22;14708;50.872;5.306;2023-12-22T08:31:59;22.30;51.30
27188;DHT22;14708;50.872;5.306;2023-12-22T08:34:26;22.30;51.40
27188;DHT22;14708;50.872;5.306;2023-12-22T08:36:52;22.30;51.30
27188;DHT22;14708;50.872;5.306;2023-12-22T08:39:17;22.30;51.30
27188;DHT22;14708;50.872;5.306;2023-12-22T08:41:43;22.30;51.20
27188;DHT22;14708;50.872;5.306;2023-12-22T08:44:09;22.30;51.40
27188;DHT22;14708;50.872;5.306;2023-12-22T08:46:35;22.30;51.40
27188;DHT22;14708;50.872;5.306;2023-12-22T08:49:02;22.30;51.50
27188;DHT22;14708;50.872;5.306;2023-12-22T08:51:28;22.30;51.50
27188;DHT22;14708;50.872;5.306;2023-12-22T08:53:55;22.40;51.70
27188;DHT22;14708;50.872;5.306;2023-12-22T08:56:21;22.40;51.90
27188;DHT22;14708;50.872;5.306;2023-12-22T08:58:47;22.40;51.70
27188;DHT22;14708;50.872;5.306;2023-12-22T09:01:16;22.40;51.30
27188;DHT22;14708;50.872;5.306;2023-12-22T09:03:42;22.40;51.00
27188;DHT22;14708;50.872;5.306;2023-12-22T09:06:18;22.40;51.20
27188;DHT22;14708;50.872;5.306;2023-12-22T09:08:45;22.40;51.30
27188;DHT22;14708;50.872;5.306;2023-12-22T09:11:17;22.40;51.40
27188;DHT22;14708;50.872;5.306;2023-12-22T09:13:43;22.40;51.50
27188;DHT22;14708;50.872;5.306;2023-12-22T09:16:11;22.40;50.00
27188;DHT22;14708;50.872;5.306;2023-12-22T09:18:42;22.40;49.60
27188;DHT22;14708;50.872;5.306;2023-12-22T09:21:10;22.40;49.60
27188;DHT22;14708;50.872;5.306;2023-12-22T09:23:36;22.40;49.50
27188;DHT22;14708;50.872;5.306;2023-12-22T09:26:01;22.40;49.30
27188;DHT22;14708;50.872;5.306;2023-12-22T09:28:27;22.40;49.30
27188;DHT22;14708;50.872;5.306;2023-12-22T09:30:52;22.40;49.50
27188;DHT22;14708;50.872;5.306;2023-12-22T09:33:18;22.40;49.40
27188;DHT22;14708;50.872;5.306;2023-12-22T09:35:44;22.40;49.40
27188;DHT22;14708;50.872;5.306;2023-12-22T09:38:10;22.40;49.60
27188;DHT22;14708;50.872;5.306;2023-12-22T09:40:36;22.40;49.80
27188;DHT22;14708;50.872;5.306;2023-12-22T09:43:02;22.40;49.70
27188;DHT22;14708;50.872;5.306;2023-12-22T09:45:30;22.40;49.80
27188;DHT22;14708;50.872;5.306;2023-12-22T09:47:59;22.40;49.90
27188;DHT22;14708;50.872;5.306;2023-12-22T09:50:26;22.40;50.40
27188;DHT22;14708;50.872;5.306;2023-12-22T09:52:52;22.40;50.10
27188;DHT22;14708;50.872;5.306;2023-12-22T09:55:19;22.40;50.20
27188;DHT22;14708;50.872;5.306;2023-12-22T09:57:47;22.40;49.90
27188;DHT22;14708;50.872;5.306;2023-12-22T10:00:14;22.40;50.10
27188;DHT22;14708;50.872;5.306;2023-12-22T10:02:40;22.40;49.90
27188;DHT22;14708;50.872;5.306;2023-12-22T10:05:08;22.40;49.80
27188;DHT22;14708;50.872;5.306;2023-12-22T10:07:35;22.40;49.60
27188;DHT22;14708;50.872;5.306;2023-12-22T10:10:02;22.40;49.80
27188;DHT22;14708;50.872;5.306;2023-12-22T10:12:29;22.40;49.60
27188;DHT22;14708;50.872;5.306;2023-12-22T10:14:59;22.40;49.60
27188;DHT22;14708;50.872;5.306;2023-12-22T10:17:26;22.40;49.60
27188;DHT22;14708;50.872;5.306;2023-12-22T10:19:52;22.40;49.50
27188;DHT22;14708;50.872;5.306;2023-12-22T10:22:17;22.40;49.50
27188;DHT22;14708;50.872;5.306;2023-12-22T10:24:45;22.40;49.50
27188;DHT22;14708;50.872;5.306;2023-12-22T10:27:17;22.40;49.40
27188;DHT22;14708;50.872;5.306;2023-12-22T10:29:56;22.40;49.30
27188;DHT22;14708;50.872;5.306;2023-12-22T10:32:22;22.40;49.80
27188;DHT22;14708;50.872;5.306;2023-12-22T10:34:51;22.50;49.70
27188;DHT22;14708;50.872;5.306;2023-12-22T10:37:16;22.50;49.70
27188;DHT22;14708;50.872;5.306;2023-12-22T10:39:42;22.60;49.70
27188;DHT22;14708;50.872;5.306;2023-12-22T10:42:09;22.60;49.80
27188;DHT22;14708;50.872;5.306;2023-12-22T10:44:35;22.60;50.00
27188;DHT22;14708;50.872;5.306;2023-12-22T10:47:05;22.60;50.10
27188;DHT22;14708;50.872;5.306;2023-12-22T10:49:31;22.70;50.20
27188;DHT22;14708;50.872;5.306;2023-12-22T10:51:57;22.70;50.50
27188;DHT22;14708;50.872;5.306;2023-12-22T10:54:22;22.70;50.80
27188;DHT22;14708;50.872;5.306;2023-12-22T10:56:48;22.70;51.10
27188;DHT22;14708;50.872;5.306;2023-12-22T10:59:19;22.80;51.40
27188;DHT22;14708;50.872;5.306;2023-12-22T11:01:48;22.80;51.70
27188;DHT22;14708;50.872;5.306;2023-12-22T11:04:17;22.80;51.90
27188;DHT22;14708;50.872;5.306;2023-12-22T11:06:47;22.80;51.70
27188;DHT22;14708;50.872;5.306;2023-12-22T11:09:16;22.80;52.00
27188;DHT22;14708;50.872;5.306;2023-12-22T11:11:42;22.80;52.50
27188;DHT22;14708;50.872;5.306;2023-12-22T11:14:08;22.90;52.80
27188;DHT22;14708;50.872;5.306;2023-12-22T11:16:35;22.90;53.00
27188;DHT22;14708;50.872;5.306;2023-12-22T11:19:02;22.90;53.30
27188;DHT22;14708;50.872;5.306;2023-12-22T11:21:29;22.90;53.20
27188;DHT22;14708;50.872;5.306;2023-12-22T11:23:55;22.90;53.10
27188;DHT22;14708;50.872;5.306;2023-12-22T11:26:23;22.90;53.40
27188;DHT22;14708;50.872;5.306;2023-12-22T11:28:50;22.90;53.70
27188;DHT22;14708;50.872;5.306;2023-12-22T11:31:19;22.90;53.50
27188;DHT22;14708;50.872;5.306;2023-12-22T11:33:47;23.00;53.60
27188;DHT22;14708;50.872;5.306;2023-12-22T11:36:18;23.00;53.60
27188;DHT22;14708;50.872;5.306;2023-12-22T11:38:45;23.00;51.80
27188;DHT22;14708;50.872;5.306;2023-12-22T11:41:26;22.90;51.20
27188;DHT22;14708;50.872;5.306;2023-12-22T11:43:54;22.90;51.10
27188;DHT22;14708;50.872;5.306;2023-12-22T11:46:21;22.90;51.20
27188;DHT22;14708;50.872;5.306;2023-12-22T11:48:50;22.90;51.60
27188;DHT22;14708;50.872;5.306;2023-12-22T11:51:17;22.90;51.70
27188;DHT22;14708;50.872;5.306;2023-12-22T11:53:43;22.90;51.90
27188;DHT22;14708;50.872;5.306;2023-12-22T11:56:10;23.00;52.00
27188;DHT22;14708;50.872;5.306;2023-12-22T11:58:42;23.00;51.90
27188;DHT22;14708;50.872;5.306;2023-12-22T12:01:14;23.00;52.10
27188;DHT22;14708;50.872;5.306;2023-12-22T12:03:53;23.00;52.10
27188;DHT22;14708;50.872;5.306;2023-12-22T12:08:53;23.00;51.70
27188;DHT22;14708;50.872;5.306;2023-12-22T12:11:20;23.00;51.70
27188;DHT22;14708;50.872;5.306;2023-12-22T12:13:46;23.00;51.40
27188;DHT22;14708;50.872;5.306;2023-12-22T12:16:14;22.90;51.60
27188;DHT22;14708;50.872;5.306;2023-12-22T12:18:40;22.90;51.70
27188;DHT22;14708;50.872;5.306;2023-12-22T12:21:07;22.90;51.70
27188;DHT22;14708;50.872;5.306;2023-12-22T12:23:34;22.80;51.70
27188;DHT22;14708;50.872;5.306;2023-12-22T12:26:00;22.80;51.90
27188;DHT22;14708;50.872;5.306;2023-12-22T12:28:30;22.80;52.10
27188;DHT22;14708;50.872;5.306;2023-12-22T12:31:02;22.70;52.10
27188;DHT22;14708;50.872;5.306;2023-12-22T12:33:29;22.70;52.70
27188;DHT22;14708;50.872;5.306;2023-12-22T12:36:00;22.60;52.00
27188;DHT22;14708;50.872;5.306;2023-12-22T12:41:32;22.60;52.10
27188;DHT22;14708;50.872;5.306;2023-12-22T12:44:03;22.60;52.40
27188;DHT22;14708;50.872;5.306;2023-12-22T12:46:39;22.50;52.20
27188;DHT22;14708;50.872;5.306;2023-12-22T12:49:09;22.50;52.40
27188;DHT22;14708;50.872;5.306;2023-12-22T12:51:47;22.50;52.40
27188;DHT22;14708;50.872;5.306;2023-12-22T12:54:14;22.40;52.60
27188;DHT22;14708;50.872;5.306;2023-12-22T12:56:41;22.40;52.60
27188;DHT22;14708;50.872;5.306;2023-12-22T12:59:10;22.40;52.60
27188;DHT22;14708;50.872;5.306;2023-12-22T13:01:43;22.40;52.60
27188;DHT22;14708;50.872;5.306;2023-12-22T13:04:10;22.40;52.70
27188;DHT22;14708;50.872;5.306;2023-12-22T13:06:45;22.30;52.80
27188;DHT22;14708;50.872;5.306;2023-12-22T13:09:12;22.30;52.60
27188;DHT22;14708;50.872;5.306;2023-12-22T13:11:41;22.30;53.40
27188;DHT22;14708;50.872;5.306;2023-12-22T13:14:11;22.30;52.70
27188;DHT22;14708;50.872;5.306;2023-12-22T13:16:39;22.20;52.70
27188;DHT22;14708;50.872;5.306;2023-12-22T13:19:05;22.20;52.70
27188;DHT22;14708;50.872;5.306;2023-12-22T13:21:31;22.20;52.60
27188;DHT22;14708;50.872;5.306;2023-12-22T13:24:13;22.20;52.50
27188;DHT22;14708;50.872;5.306;2023-12-22T13:26:40;22.20;52.60
27188;DHT22;14708;50.872;5.306;2023-12-22T13:29:06;22.20;52.70
27188;DHT22;14708;50.872;5.306;2023-12-22T13:31:33;22.20;52.70
27188;DHT22;14708;50.872;5.306;2023-12-22T13:33:59;22.10;52.70
27188;DHT22;14708;50.872;5.306;2023-12-22T13:36:26;22.10;52.70
27188;DHT22;14708;50.872;5.306;2023-12-22T13:38:52;22.10;52.70
27188;DHT22;14708;50.872;5.306;2023-12-22T13:41:18;22.10;52.70
27188;DHT22;14708;50.872;5.306;2023-12-22T13:43:44;22.10;52.70
27188;DHT22;14708;50.872;5.306;2023-12-22T13:46:14;22.10;52.90
27188;DHT22;14708;50.872;5.306;2023-12-22T13:48:40;22.10;53.00
27188;DHT22;14708;50.872;5.306;2023-12-22T13:51:06;22.10;52.60
27188;DHT22;14708;50.872;5.306;2023-12-22T13:53:32;22.20;51.50
27188;DHT22;14708;50.872;5.306;2023-12-22T13:55:58;22.20;51.50
27188;DHT22;14708;50.872;5.306;2023-12-22T13:58:25;22.20;51.50
27188;DHT22;14708;50.872;5.306;2023-12-22T14:00:51;22.20;51.50
27188;DHT22;14708;50.872;5.306;2023-12-22T14:03:17;22.20;51.40
27188;DHT22;14708;50.872;5.306;2023-12-22T14:05:47;22.20;51.30
27188;DHT22;14708;50.872;5.306;2023-12-22T14:08:16;22.20;51.10
27188;DHT22;14708;50.872;5.306;2023-12-22T14:10:46;22.20;51.80
27188;DHT22;14708;50.872;5.306;2023-12-22T14:13:15;22.20;51.50
27188;DHT22;14708;50.872;5.306;2023-12-22T14:15:44;22.20;51.50
27188;DHT22;14708;50.872;5.306;2023-12-22T14:18:11;22.30;51.90
27188;DHT22;14708;50.872;5.306;2023-12-22T14:20:36;22.20;52.10
27188;DHT22;14708;50.872;5.306;2023-12-22T14:23:02;22.30;52.20
27188;DHT22;14708;50.872;5.306;2023-12-22T14:25:29;22.30;52.20
27188;DHT22;14708;50.872;5.306;2023-12-22T14:27:57;22.40;52.40
27188;DHT22;14708;50.872;5.306;2023-12-22T14:30:24;22.30;52.10
27188;DHT22;14708;50.872;5.306;2023-12-22T14:32:50;22.40;52.20
27188;DHT22;14708;50.872;5.306;2023-12-22T14:35:15;22.40;51.90
27188;DHT22;14708;50.872;5.306;2023-12-22T14:37:41;22.40;51.70
27188;DHT22;14708;50.872;5.306;2023-12-22T14:40:10;22.40;51.70
27188;DHT22;14708;50.872;5.306;2023-12-22T14:42:35;22.40;51.60
27188;DHT22;14708;50.872;5.306;2023-12-22T14:45:01;22.40;51.50
27188;DHT22;14708;50.872;5.306;2023-12-22T14:47:30;22.50;51.40
27188;DHT22;14708;50.872;5.306;2023-12-22T14:49:56;22.50;51.30
27188;DHT22;14708;50.872;5.306;2023-12-22T14:52:25;22.50;51.30
27188;DHT22;14708;50.872;5.306;2023-12-22T14:54:50;22.50;51.20
27188;DHT22;14708;50.872;5.306;2023-12-22T14:57:16;22.50;51.30
27188;DHT22;14708;50.872;5.306;2023-12-22T14:59:46;22.50;51.20
27188;DHT22;14708;50.872;5.306;2023-12-22T15:02:12;22.50;51.30
27188;DHT22;14708;50.872;5.306;2023-12-22T15:04:38;22.50;51.10
27188;DHT22;14708;50.872;5.306;2023-12-22T15:07:03;22.60;51.10
27188;DHT22;14708;50.872;5.306;2023-12-22T15:09:29;22.60;51.50
27188;DHT22;14708;50.872;5.306;2023-12-22T15:11:55;22.60;51.50
27188;DHT22;14708;50.872;5.306;2023-12-22T15:14:21;22.60;54.90
27188;DHT22;14708;50.872;5.306;2023-12-22T15:16:49;22.50;53.40
27188;DHT22;14708;50.872;5.306;2023-12-22T15:19:17;22.50;53.30
27188;DHT22;14708;50.872;5.306;2023-12-22T15:21:43;22.60;53.10
27188;DHT22;14708;50.872;5.306;2023-12-22T15:24:09;22.60;52.70
27188;DHT22;14708;50.872;5.306;2023-12-22T15:26:35;22.60;52.80
27188;DHT22;14708;50.872;5.306;2023-12-22T15:29:02;22.60;53.20
27188;DHT22;14708;50.872;5.306;2023-12-22T15:31:28;22.60;53.40
27188;DHT22;14708;50.872;5.306;2023-12-22T15:33:57;22.60;53.40
27188;DHT22;14708;50.872;5.306;2023-12-22T15:36:23;22.60;53.50